createdAt,value
2022-07-26T00:01:55.853Z,52.38
2022-07-26T00:06:58.504Z,55.81
2022-07-26T00:12:00.952Z,54.94
2022-07-26T00:17:03.969Z,53.16
2022-07-26T00:22:25.276Z,56.45
2022-07-26T00:27:27.720Z,53.11
2022-07-26T00:32:30.127Z,55.06
2022-07-26T00:37:32.575Z,55.86
2022-07-26T00:42:34.682Z,56.20
2022-07-26T00:47:40.024Z,55.84
2022-07-26T00:52:44.136Z,58.74
2022-07-26T00:57:46.229Z,58.45
2022-07-26T01:02:50.001Z,58.46
2022-07-26T01:07:53.490Z,61.43
2022-07-26T01:12:55.538Z,63.33
2022-07-26T01:17:57.989Z,59.94
2022-07-26T01:23:00.536Z,62.37
2022-07-26T01:28:04.020Z,61.87
2022-07-26T01:33:06.626Z,62.64
2022-07-26T01:38:09.438Z,62.84
2022-07-26T01:43:12.002Z,63.18
2022-07-26T01:48:14.433Z,64.98
2022-07-26T01:53:17.119Z,65.92
2022-07-26T01:58:19.785Z,66.87
2022-07-26T02:03:21.845Z,65.01
2022-07-26T02:08:23.897Z,61.91
2022-07-26T02:13:37.734Z,65.79
2022-07-26T02:18:42.968Z,68.29
2022-07-26T02:23:45.043Z,70.85
2022-07-26T02:28:47.058Z,69.98
2022-07-26T02:33:49.509Z,67.02
2022-07-26T02:38:51.953Z,68.18
2022-07-26T02:43:55.969Z,72.74
2022-07-26T02:48:59.757Z,74.28
2022-07-26T02:54:02.261Z,74.03
2022-07-26T02:59:04.829Z,73.42
2022-07-26T03:04:10.230Z,71.44
2022-07-26T03:09:13.246Z,73.25
2022-07-26T03:14:15.693Z,71.76
2022-07-26T03:19:18.095Z,69.05
2022-07-26T03:24:20.525Z,69.75
2022-07-26T03:29:24.124Z,71.18
2022-07-26T03:34:27.014Z,71.59
2022-07-26T03:39:29.427Z,70.90
2022-07-26T03:44:31.881Z,72.35
2022-07-26T03:49:34.689Z,72.23
2022-07-26T03:54:37.451Z,74.43
2022-07-26T03:59:39.930Z,74.19
2022-07-26T04:04:43.691Z,74.22
2022-07-26T04:09:48.895Z,73.22
2022-07-26T04:14:51.296Z,67.56
2022-07-26T04:19:53.898Z,69.81
2022-07-26T04:24:56.311Z,64.68
2022-07-26T04:29:58.837Z,65.45
2022-07-26T04:35:01.282Z,68.68
2022-07-26T04:40:03.911Z,70.26
2022-07-26T04:45:08.521Z,72.08
2022-07-26T04:50:14.314Z,73.30
2022-07-26T04:55:18.424Z,74.01
2022-07-26T05:00:24.930Z,69.34
2022-07-26T05:05:31.119Z,70.83
2022-07-26T05:10:37.056Z,70.98
2022-07-26T05:15:39.940Z,71.62
2022-07-26T05:20:44.960Z,72.99
2022-07-26T05:25:47.759Z,73.39
2022-07-26T05:30:50.569Z,74.45
2022-07-26T05:35:53.090Z,70.98
2022-07-26T05:40:55.588Z,73.71
2022-07-26T05:45:58.588Z,69.14
2022-07-26T05:51:02.393Z,72.88
2022-07-26T05:56:05.732Z,75.93
2022-07-26T06:01:08.211Z,73.31
2022-07-26T06:06:11.544Z,74.47
2022-07-26T06:11:13.967Z,69.50
2022-07-26T06:16:16.594Z,65.43
2022-07-26T06:21:19.046Z,60.68
2022-07-26T06:26:23.853Z,62.23
2022-07-26T06:31:26.589Z,61.44
2022-07-26T06:36:30.958Z,59.16
2022-07-26T06:41:33.785Z,52.96
2022-07-26T06:46:36.507Z,58.72
2022-07-26T06:51:39.033Z,51.85
2022-07-26T06:56:41.481Z,59.36
2022-07-26T07:01:55.671Z,56.33
2022-07-26T07:07:05.157Z,47.67
2022-07-26T07:12:10.266Z,49.08
2022-07-26T07:17:18.508Z,57.41
2022-07-26T07:22:22.803Z,56.63
2022-07-26T07:27:25.254Z,49.33
2022-07-26T07:32:30.118Z,45.40
2022-07-26T07:37:52.704Z,46.00
2022-07-26T07:42:56.440Z,52.77
2022-07-26T07:47:58.972Z,51.82
2022-07-26T07:53:02.113Z,52.22
2022-07-26T07:58:04.788Z,53.09
2022-07-26T08:03:07.347Z,49.70
2022-07-26T08:08:10.670Z,48.33
2022-07-26T08:13:13.119Z,52.08
2022-07-26T08:18:15.549Z,50.52
2022-07-26T08:23:20.374Z,47.54
2022-07-26T08:28:38.140Z,49.68
2022-07-26T08:33:46.498Z,43.94
2022-07-26T08:38:49.693Z,47.51
2022-07-26T08:43:53.783Z,46.66
2022-07-26T08:48:57.511Z,46.68
2022-07-26T08:54:05.614Z,38.85
2022-07-26T08:59:20.851Z,45.83
2022-07-26T09:04:43.385Z,40.83
2022-07-26T09:09:57.108Z,40.90
2022-07-26T09:15:01.243Z,42.89
2022-07-26T09:20:25.936Z,44.21
2022-07-26T09:25:33.821Z,40.33
2022-07-26T09:30:36.500Z,45.41
2022-07-26T09:35:50.610Z,46.26
2022-07-26T09:40:55.524Z,37.53
2022-07-26T09:46:07.551Z,37.86
2022-07-26T09:51:12.250Z,42.52
2022-07-26T09:56:15.082Z,42.30
2022-07-26T10:01:17.611Z,43.07
2022-07-26T10:06:24.994Z,44.51
2022-07-26T10:11:55.403Z,43.24
2022-07-26T10:16:57.886Z,44.44
2022-07-26T10:22:45.758Z,40.50
2022-07-26T10:27:56.012Z,38.69
2022-07-26T10:33:13.558Z,35.85
2022-07-26T10:38:24.246Z,34.55
2022-07-26T10:43:40.719Z,37.42
2022-07-26T10:48:57.772Z,35.75
2022-07-26T10:54:02.276Z,38.43
2022-07-26T10:59:06.561Z,34.79
2022-07-26T11:04:29.302Z,30.50
2022-07-26T11:09:35.334Z,36.05
2022-07-26T11:14:37.831Z,36.37
2022-07-26T11:19:40.636Z,37.78
2022-07-26T11:24:44.263Z,39.76
2022-07-26T11:29:49.260Z,38.02
2022-07-26T11:35:04.633Z,33.97
2022-07-26T11:40:07.702Z,34.95
2022-07-26T11:45:11.418Z,39.27
2022-07-26T11:50:21.847Z,38.70
2022-07-26T11:55:31.434Z,37.78
2022-07-26T12:00:34.075Z,38.89
2022-07-26T12:05:36.790Z,38.11
2022-07-26T12:10:39.542Z,42.56
2022-07-26T12:15:47.790Z,29.36
2022-07-26T12:21:04.986Z,32.53
2022-07-26T12:26:23.518Z,39.32
2022-07-26T12:31:34.314Z,35.50
2022-07-26T12:36:37.069Z,33.24
2022-07-26T12:41:40.723Z,33.89
2022-07-26T12:46:47.545Z,34.26
2022-07-26T12:51:50.093Z,29.95
2022-07-26T12:56:52.554Z,40.32
2022-07-26T13:01:55.225Z,37.23
2022-07-26T13:06:57.885Z,42.01
2022-07-26T13:12:02.784Z,42.55
2022-07-26T13:17:06.667Z,35.84
2022-07-26T13:22:09.909Z,42.17
2022-07-26T13:27:12.463Z,36.76
2022-07-26T13:32:14.939Z,41.37
2022-07-26T13:37:17.476Z,42.30
2022-07-26T13:42:19.978Z,35.05
2022-07-26T13:47:22.462Z,34.81
2022-07-26T13:52:24.981Z,34.55
2022-07-26T13:57:52.909Z,28.26
2022-07-26T14:02:52.248Z,32.71
2022-07-26T14:07:56.131Z,36.47
2022-07-26T14:12:59.005Z,35.08
2022-07-26T14:18:01.990Z,30.10
2022-07-26T14:23:04.583Z,35.40
2022-07-26T14:28:07.044Z,38.96
2022-07-26T14:33:09.741Z,38.73
2022-07-26T14:38:12.511Z,36.88
2022-07-26T14:43:15.281Z,41.93
2022-07-26T14:48:37.523Z,43.79
2022-07-26T14:53:43.406Z,38.56
2022-07-26T14:58:45.890Z,40.57
2022-07-26T15:03:50.129Z,41.55
2022-07-26T15:08:52.689Z,39.38
2022-07-26T15:13:55.260Z,41.75
2022-07-26T15:18:57.808Z,38.06
2022-07-26T15:24:01.220Z,43.20
2022-07-26T15:29:03.723Z,40.84
2022-07-26T15:34:09.334Z,42.40
2022-07-26T15:39:17.634Z,44.06
2022-07-26T15:44:25.508Z,40.63
2022-07-26T15:49:28.428Z,37.04
2022-07-26T15:54:31.022Z,43.43
2022-07-26T15:59:33.634Z,43.44
2022-07-26T16:04:36.073Z,44.27
2022-07-26T16:09:38.624Z,45.65
2022-07-26T16:14:41.380Z,44.50
2022-07-26T16:19:43.827Z,45.19
2022-07-26T16:24:46.611Z,46.27
2022-07-26T16:29:52.333Z,42.99
2022-07-26T16:34:55.170Z,47.53
2022-07-26T16:39:57.643Z,45.25
2022-07-26T16:45:00.246Z,47.64
2022-07-26T16:50:02.739Z,47.34
2022-07-26T16:55:10.622Z,47.79
2022-07-26T17:00:15.915Z,47.85
2022-07-26T17:05:18.408Z,48.14
2022-07-26T17:10:21.065Z,46.70
2022-07-26T17:15:23.512Z,47.11
2022-07-26T17:20:26.071Z,48.24
2022-07-26T17:25:28.666Z,48.43
2022-07-26T17:30:31.107Z,48.79
2022-07-26T17:35:33.643Z,46.93
2022-07-26T17:40:36.953Z,48.22
2022-07-26T17:45:41.471Z,48.60
2022-07-26T17:50:43.989Z,48.40
2022-07-26T17:55:46.516Z,49.94
2022-07-26T18:00:49.049Z,50.08
2022-07-26T18:05:52.107Z,50.08
2022-07-26T18:10:58.662Z,49.13
2022-07-26T18:16:05.763Z,49.84
2022-07-26T18:21:08.808Z,50.92
2022-07-26T18:26:11.324Z,49.57
2022-07-26T18:31:13.928Z,50.11
2022-07-26T18:36:17.678Z,50.00
2022-07-26T18:41:20.293Z,50.43
2022-07-26T18:46:22.901Z,50.36
2022-07-26T18:51:26.648Z,48.05
2022-07-26T18:56:29.296Z,49.67
2022-07-26T19:01:31.924Z,47.01
2022-07-26T19:06:34.890Z,50.16
2022-07-26T19:11:37.610Z,50.00
2022-07-26T19:16:40.434Z,50.77
2022-07-26T19:21:46.762Z,49.60
2022-07-26T19:26:49.460Z,49.21
2022-07-26T19:31:51.962Z,51.99
2022-07-26T19:36:54.683Z,49.19
2022-07-26T19:41:57.630Z,49.99
2022-07-26T19:47:00.075Z,49.83
2022-07-26T19:52:02.601Z,49.33
2022-07-26T19:57:05.122Z,46.30
2022-07-26T20:02:08.110Z,48.40
2022-07-26T20:07:10.855Z,46.07
2022-07-26T20:12:13.429Z,47.13
2022-07-26T20:17:16.290Z,49.79
2022-07-26T20:22:18.852Z,50.49
2022-07-26T20:27:22.288Z,48.98
2022-07-26T20:32:24.834Z,47.48
2022-07-26T20:37:27.269Z,49.35
2022-07-26T20:42:29.706Z,50.31
2022-07-26T20:47:34.217Z,48.31
2022-07-26T20:52:41.758Z,49.16
2022-07-26T20:57:44.848Z,51.33
2022-07-26T21:02:47.809Z,48.11
2022-07-26T21:07:55.186Z,50.78
2022-07-26T21:13:01.927Z,51.50
2022-07-26T21:18:04.678Z,51.04
2022-07-26T21:23:17.190Z,47.38
2022-07-26T21:28:20.548Z,51.91
2022-07-26T21:33:26.185Z,51.15
2022-07-26T21:38:32.044Z,51.93
2022-07-26T21:43:34.682Z,47.81
2022-07-26T21:48:38.546Z,50.39
2022-07-26T21:53:41.213Z,51.71
2022-07-26T21:58:43.725Z,50.92
2022-07-26T22:03:46.139Z,52.14
2022-07-26T22:08:48.736Z,52.70
2022-07-26T22:13:51.257Z,51.89
2022-07-26T22:18:53.759Z,51.92
2022-07-26T22:23:56.460Z,50.64
2022-07-26T22:28:59.878Z,49.43
2022-07-26T22:34:02.640Z,52.05
2022-07-26T22:39:05.172Z,50.72
2022-07-26T22:44:13.823Z,49.05
2022-07-26T22:49:16.306Z,49.25
2022-07-26T22:54:18.820Z,50.33
2022-07-26T22:59:22.598Z,53.31
2022-07-26T23:04:25.021Z,51.74
2022-07-26T23:09:27.484Z,53.43
2022-07-26T23:14:29.910Z,51.58
2022-07-26T23:19:32.359Z,52.00
2022-07-26T23:24:34.915Z,51.56
2022-07-26T23:29:37.496Z,54.18
2022-07-26T23:34:40.004Z,53.84
2022-07-26T23:39:42.413Z,52.35
2022-07-26T23:44:44.846Z,50.92
2022-07-26T23:49:47.284Z,50.71
2022-07-26T23:54:49.751Z,52.83
2022-07-26T23:59:52.128Z,55.48
